createdAt,value
2019-02-07T00:02:16.055Z,20.60
2019-02-07T00:04:47.730Z,20.70
2019-02-07T00:07:19.296Z,20.50
2019-02-07T00:09:50.999Z,20.40
2019-02-07T00:12:22.650Z,20.30
2019-02-07T00:14:54.289Z,20.50
2019-02-07T00:17:25.840Z,20.40
2019-02-07T00:19:57.645Z,20.50
2019-02-07T00:22:29.213Z,20.60
2019-02-07T00:25:01.010Z,20.60
2019-02-07T00:27:32.917Z,20.60
2019-02-07T00:30:05.249Z,20.80
2019-02-07T00:32:36.822Z,20.90
2019-02-07T00:35:09.250Z,20.90
2019-02-07T00:37:40.802Z,21.30
2019-02-07T00:40:14.617Z,20.90
2019-02-07T00:42:46.845Z,20.70
2019-02-07T00:45:18.426Z,20.90
2019-02-07T00:47:50.251Z,20.60
2019-02-07T00:50:21.938Z,20.50
2019-02-07T00:52:53.438Z,20.40
2019-02-07T00:55:25.870Z,20.20
2019-02-07T00:57:57.612Z,20.00
2019-02-07T01:00:29.275Z,19.90
2019-02-07T01:03:00.776Z,19.90
2019-02-07T01:05:32.466Z,20.00
2019-02-07T01:08:04.650Z,19.90
2019-02-07T01:10:53.943Z,19.90
2019-02-07T01:13:43.408Z,19.80
2019-02-07T01:16:14.930Z,20.00
2019-02-07T01:18:46.570Z,19.50
2019-02-07T01:21:18.269Z,19.40
2019-02-07T01:23:49.749Z,19.40
2019-02-07T01:26:21.788Z,19.20
2019-02-07T01:28:53.548Z,19.30
2019-02-07T01:31:25.322Z,19.30
2019-02-07T01:33:56.864Z,19.30
2019-02-07T01:36:28.617Z,19.20
2019-02-07T01:39:00.121Z,19.10
2019-02-07T01:41:31.837Z,18.90
2019-02-07T01:44:03.387Z,18.90
2019-02-07T01:46:34.854Z,19.60
2019-02-07T01:49:06.360Z,18.80
2019-02-07T01:51:38.132Z,18.90
2019-02-07T01:54:09.590Z,19.00
2019-02-07T01:56:41.115Z,19.00
2019-02-07T01:59:12.814Z,19.10
2019-02-07T02:01:44.398Z,19.20
2019-02-07T02:04:15.873Z,19.30
2019-02-07T02:06:47.674Z,19.30
2019-02-07T02:09:19.207Z,19.30
2019-02-07T02:11:50.783Z,19.30
2019-02-07T02:14:24.308Z,19.30
2019-02-07T02:16:55.901Z,19.30
2019-02-07T02:19:27.469Z,19.20
2019-02-07T02:21:59.101Z,19.10
2019-02-07T02:24:30.600Z,19.10
2019-02-07T02:27:02.158Z,19.10
2019-02-07T02:29:33.991Z,19.00
2019-02-07T02:32:05.778Z,19.00
2019-02-07T02:34:37.290Z,18.90
2019-02-07T02:37:08.984Z,18.80
2019-02-07T02:39:40.735Z,18.70
2019-02-07T02:42:12.443Z,18.60
2019-02-07T02:44:43.932Z,18.70
2019-02-07T02:47:15.613Z,18.70
2019-02-07T02:49:47.190Z,18.70
2019-02-07T02:52:18.733Z,18.80
2019-02-07T02:54:53.433Z,18.80
2019-02-07T02:57:27.843Z,19.00
2019-02-07T02:59:59.653Z,19.00
2019-02-07T03:02:51.560Z,19.10
2019-02-07T03:05:45.070Z,19.20
2019-02-07T03:08:34.197Z,19.30
2019-02-07T03:11:23.921Z,19.40
2019-02-07T03:14:13.449Z,19.50
2019-02-07T03:17:22.884Z,19.50
2019-02-07T03:20:13.388Z,19.70
2019-02-07T03:23:22.086Z,19.70
2019-02-07T03:26:12.724Z,19.60
2019-02-07T03:29:01.880Z,19.50
2019-02-07T03:31:51.265Z,19.50
2019-02-07T03:34:40.716Z,19.40
2019-02-07T03:37:22.193Z,19.20
2019-02-07T03:40:27.863Z,19.20
2019-02-07T03:43:18.371Z,19.30
2019-02-07T03:46:11.971Z,19.40
2019-02-07T03:48:59.586Z,19.50
2019-02-07T03:51:48.713Z,19.70
2019-02-07T03:54:37.678Z,19.90
2019-02-07T03:57:40.407Z,20.10
2019-02-07T04:00:38.462Z,20.40
2019-02-07T04:03:39.859Z,20.60
2019-02-07T04:06:39.499Z,20.80
2019-02-07T04:09:35.853Z,20.50
2019-02-07T04:12:29.733Z,20.70
2019-02-07T04:15:18.970Z,20.80
2019-02-07T04:18:17.117Z,20.70
2019-02-07T04:21:07.445Z,20.90
2019-02-07T04:23:48.481Z,21.00
2019-02-07T04:26:47.929Z,20.90
2019-02-07T04:29:44.719Z,21.00
2019-02-07T04:32:38.100Z,20.90
2019-02-07T04:35:37.669Z,20.90
2019-02-07T04:38:38.045Z,20.80
2019-02-07T04:41:31.492Z,20.40
2019-02-07T04:44:20.449Z,20.40
2019-02-07T04:47:09.735Z,20.40
2019-02-07T04:50:06.031Z,20.40
2019-02-07T04:53:05.273Z,20.80
2019-02-07T04:55:56.143Z,20.80
2019-02-07T04:58:36.990Z,21.20
2019-02-07T05:01:27.959Z,20.90
2019-02-07T05:04:27.664Z,20.70
2019-02-07T05:07:05.945Z,20.80
2019-02-07T05:09:59.145Z,21.00
2019-02-07T05:12:48.387Z,21.10
2019-02-07T05:15:39.026Z,21.00
2019-02-07T05:18:27.948Z,20.80
2019-02-07T05:21:18.570Z,20.40
2019-02-07T05:24:26.966Z,20.00
2019-02-07T05:27:20.662Z,19.70
2019-02-07T05:30:10.519Z,19.50
2019-02-07T05:32:58.239Z,19.50
2019-02-07T05:35:58.088Z,19.10
2019-02-07T05:38:48.665Z,18.90
2019-02-07T05:41:33.826Z,19.00
2019-02-07T05:44:14.651Z,18.80
2019-02-07T05:47:03.549Z,19.20
2019-02-07T05:50:09.401Z,19.00
2019-02-07T05:52:52.622Z,18.90
2019-02-07T05:55:42.266Z,18.50
2019-02-07T05:58:38.356Z,18.40
2019-02-07T06:01:17.645Z,18.40
2019-02-07T06:04:01.414Z,18.80
2019-02-07T06:06:55.033Z,18.70
2019-02-07T06:09:49.067Z,19.00
2019-02-07T06:12:38.390Z,19.00
2019-02-07T06:15:37.604Z,19.40
2019-02-07T06:18:24.498Z,19.10
2019-02-07T06:21:15.154Z,19.20
2019-02-07T06:24:11.644Z,19.20
2019-02-07T06:26:54.319Z,19.10
2019-02-07T06:29:43.636Z,19.50
2019-02-07T06:32:36.845Z,19.60
2019-02-07T06:35:33.282Z,19.60
2019-02-07T06:38:15.712Z,19.50
2019-02-07T06:41:05.026Z,19.70
2019-02-07T06:43:54.223Z,19.30
2019-02-07T06:46:38.223Z,19.10
2019-02-07T06:49:35.129Z,19.10
2019-02-07T06:52:31.526Z,19.20
2019-02-07T06:55:20.367Z,19.10
2019-02-07T06:58:11.211Z,19.10
2019-02-07T07:01:13.983Z,19.20
2019-02-07T07:04:04.669Z,19.00
2019-02-07T07:06:53.981Z,18.90
2019-02-07T07:09:43.220Z,19.00
2019-02-07T07:12:33.531Z,19.10
2019-02-07T07:15:15.503Z,19.30
2019-02-07T07:18:06.434Z,19.10
2019-02-07T07:20:51.739Z,19.30
2019-02-07T07:25:59.922Z,18.60
2019-02-07T07:28:59.501Z,19.50
2019-02-07T07:32:05.599Z,19.50
2019-02-07T07:35:05.123Z,20.00
2019-02-07T07:37:55.543Z,19.50
2019-02-07T07:41:04.094Z,19.50
2019-02-07T07:43:57.616Z,19.60
2019-02-07T07:46:47.933Z,19.90
2019-02-07T07:49:32.142Z,19.50
2019-02-07T07:52:25.463Z,19.70
2019-02-07T07:55:28.389Z,19.40
2019-02-07T07:58:21.729Z,19.10
2019-02-07T08:01:18.086Z,19.10
2019-02-07T08:04:08.546Z,18.60
2019-02-07T08:07:11.057Z,18.60
2019-02-07T08:10:04.344Z,18.50
2019-02-07T08:12:59.795Z,18.30
2019-02-07T08:15:49.021Z,18.00
2019-02-07T08:18:48.469Z,18.00
2019-02-07T08:21:37.629Z,17.70
2019-02-07T08:24:24.773Z,17.60
2019-02-07T08:27:21.330Z,17.80
2019-02-07T08:30:10.661Z,17.70
2019-02-07T08:33:07.024Z,17.70
2019-02-07T08:36:06.564Z,17.50
2019-02-07T08:38:55.463Z,17.70
2019-02-07T08:41:36.567Z,17.60
2019-02-07T08:44:39.105Z,17.30
2019-02-07T08:47:20.508Z,17.10
2019-02-07T08:50:29.425Z,17.10
2019-02-07T08:53:31.822Z,17.00
2019-02-07T08:56:14.757Z,17.40
2019-02-07T08:59:03.844Z,17.30
2019-02-07T09:01:44.191Z,17.00
2019-02-07T09:04:34.514Z,17.50
2019-02-07T09:07:15.974Z,17.40
2019-02-07T09:10:04.776Z,17.20
2019-02-07T09:12:55.248Z,16.70
2019-02-07T09:15:49.230Z,17.10
2019-02-07T09:18:38.568Z,16.40
2019-02-07T09:21:27.935Z,16.20
2019-02-07T09:24:16.864Z,16.70
2019-02-07T09:27:02.702Z,16.90
2019-02-07T09:29:59.370Z,16.40
2019-02-07T09:32:49.628Z,16.60
2019-02-07T09:35:39.447Z,16.40
2019-02-07T09:38:36.544Z,15.90
2019-02-07T09:41:36.879Z,16.10
2019-02-07T09:44:26.096Z,15.50
2019-02-07T09:47:20.814Z,15.50
2019-02-07T09:50:18.109Z,15.70
2019-02-07T09:53:23.418Z,15.40
2019-02-07T09:55:57.600Z,15.30
2019-02-07T09:58:47.713Z,15.60
2019-02-07T10:01:26.791Z,15.10
2019-02-07T10:04:17.120Z,15.30
2019-02-07T10:07:16.332Z,15.40
2019-02-07T10:10:16.166Z,15.10
2019-02-07T10:13:06.597Z,14.80
2019-02-07T10:15:54.783Z,15.10
2019-02-07T10:18:43.783Z,14.90
2019-02-07T10:21:24.126Z,15.10
2019-02-07T10:24:23.816Z,14.70
2019-02-07T10:27:23.335Z,15.30
2019-02-07T10:30:25.814Z,15.20
2019-02-07T10:33:15.294Z,15.40
2019-02-07T10:36:08.854Z,15.80
2019-02-07T10:39:05.075Z,16.00
2019-02-07T10:41:55.463Z,16.30
2019-02-07T10:44:44.702Z,16.30
2019-02-07T10:47:33.603Z,16.30
2019-02-07T10:50:37.430Z,16.30
2019-02-07T10:53:33.570Z,16.20
2019-02-07T10:56:15.853Z,15.90
2019-02-07T10:59:06.272Z,15.70
2019-02-07T11:01:55.934Z,16.20
2019-02-07T11:04:46.283Z,16.20
2019-02-07T11:07:36.698Z,15.50
2019-02-07T11:10:29.099Z,15.90
2019-02-07T11:13:19.992Z,15.50
2019-02-07T11:16:09.368Z,15.00
2019-02-07T11:19:00.387Z,15.10
2019-02-07T11:21:53.616Z,15.30
2019-02-07T11:24:48.042Z,15.00
2019-02-07T11:27:37.068Z,15.20
2019-02-07T11:30:31.574Z,15.00
2019-02-07T11:33:33.909Z,15.30
2019-02-07T11:36:35.296Z,15.10
2019-02-07T11:39:29.788Z,15.30
2019-02-07T11:42:38.844Z,15.50
2019-02-07T11:45:31.004Z,15.50
2019-02-07T11:48:15.849Z,15.70
2019-02-07T11:50:55.905Z,15.50
2019-02-07T11:53:45.472Z,15.20
2019-02-07T11:56:25.952Z,15.80
2019-02-07T11:59:19.401Z,15.70
2019-02-07T12:02:09.783Z,15.10
2019-02-07T12:05:00.990Z,15.80
2019-02-07T12:08:07.386Z,15.90
2019-02-07T12:11:04.115Z,15.80
2019-02-07T12:13:54.540Z,15.70
2019-02-07T12:16:43.982Z,15.50
2019-02-07T12:19:31.547Z,15.70
2019-02-07T12:22:37.335Z,15.70
2019-02-07T12:25:26.763Z,15.00
2019-02-07T12:28:17.461Z,15.10
2019-02-07T12:31:19.867Z,14.90
2019-02-07T12:34:07.163Z,15.00
2019-02-07T12:37:05.495Z,14.90
2019-02-07T12:39:59.205Z,15.00
2019-02-07T12:42:48.157Z,14.90
2019-02-07T12:45:51.056Z,15.10
2019-02-07T12:48:40.172Z,15.10
2019-02-07T12:51:30.613Z,14.90
2019-02-07T12:54:19.547Z,14.60
2019-02-07T12:57:09.058Z,15.00
2019-02-07T13:00:05.573Z,15.10
2019-02-07T13:02:46.215Z,14.80
2019-02-07T13:05:36.256Z,14.80
2019-02-07T13:08:26.795Z,14.50
2019-02-07T13:11:15.760Z,14.50
2019-02-07T13:14:15.233Z,14.80
2019-02-07T13:17:14.779Z,14.70
2019-02-07T13:19:55.735Z,14.70
2019-02-07T13:22:47.086Z,14.80
2019-02-07T13:25:36.340Z,14.70
2019-02-07T13:28:25.505Z,14.90
2019-02-07T13:31:20.919Z,14.10
2019-02-07T13:34:21.369Z,14.30
2019-02-07T13:37:08.764Z,14.50
2019-02-07T13:40:10.325Z,14.30
2019-02-07T13:43:12.642Z,14.10
2019-02-07T13:45:55.355Z,14.30
2019-02-07T13:48:58.069Z,14.00
2019-02-07T13:52:00.192Z,14.40
2019-02-07T13:54:49.413Z,14.60
2019-02-07T13:57:49.453Z,14.30
2019-02-07T14:00:45.029Z,14.40
2019-02-07T14:03:28.580Z,14.60
2019-02-07T14:06:13.286Z,14.60
2019-02-07T14:09:15.686Z,14.50
2019-02-07T14:12:18.647Z,14.50
2019-02-07T14:15:06.977Z,14.70
2019-02-07T14:17:58.211Z,14.20
2019-02-07T14:20:48.674Z,14.20
2019-02-07T14:23:37.909Z,14.40
2019-02-07T14:26:32.662Z,14.30
2019-02-07T14:29:21.888Z,14.30
2019-02-07T14:32:12.819Z,13.90
2019-02-07T14:35:00.976Z,13.70
2019-02-07T14:38:04.046Z,13.90
2019-02-07T14:40:57.405Z,14.00
2019-02-07T14:43:41.670Z,13.90
2019-02-07T14:46:32.528Z,13.90
2019-02-07T14:49:04.280Z,14.00
2019-02-07T14:51:35.753Z,14.00
2019-02-07T14:54:07.344Z,14.40
2019-02-07T14:56:38.936Z,14.70
2019-02-07T14:59:10.533Z,15.00
2019-02-07T15:01:42.070Z,15.20
2019-02-07T15:04:13.691Z,15.40
2019-02-07T15:06:45.161Z,15.70
2019-02-07T15:09:20.074Z,15.90
2019-02-07T15:11:51.885Z,16.10
2019-02-07T15:14:23.644Z,16.40
2019-02-07T15:16:55.142Z,16.50
2019-02-07T15:19:26.883Z,16.80
2019-02-07T15:21:58.403Z,16.60
2019-02-07T15:24:30.200Z,16.60
2019-02-07T15:27:01.837Z,16.40
2019-02-07T15:29:33.721Z,16.60
2019-02-07T15:32:05.530Z,16.80
2019-02-07T15:34:37.077Z,17.10
2019-02-07T15:37:08.559Z,17.40
2019-02-07T15:39:40.329Z,17.20
2019-02-07T15:42:12.363Z,17.50
2019-02-07T15:44:44.134Z,18.00
2019-02-07T15:47:15.666Z,17.90
2019-02-07T15:49:48.244Z,17.80
2019-02-07T15:52:19.754Z,17.90
2019-02-07T15:54:51.308Z,17.50
2019-02-07T15:57:23.162Z,17.30
2019-02-07T15:59:58.113Z,17.40
2019-02-07T16:02:39.306Z,17.60
2019-02-07T16:05:13.474Z,17.40
2019-02-07T16:07:45.090Z,17.30
2019-02-07T16:10:18.176Z,17.40
2019-02-07T16:12:50.140Z,17.30
2019-02-07T16:15:21.794Z,17.00
2019-02-07T16:17:53.504Z,17.20
2019-02-07T16:20:25.477Z,17.40
2019-02-07T16:22:58.980Z,17.20
2019-02-07T16:25:30.765Z,17.20
2019-02-07T16:28:02.555Z,17.10
2019-02-07T16:30:34.584Z,17.00
2019-02-07T16:33:06.617Z,17.00
2019-02-07T16:35:38.405Z,17.00
2019-02-07T16:38:09.993Z,17.10
2019-02-07T16:40:41.785Z,17.10
2019-02-07T16:43:13.847Z,16.90
2019-02-07T16:45:46.052Z,16.90
2019-02-07T16:48:17.661Z,16.90
2019-02-07T16:50:59.673Z,16.70
2019-02-07T16:53:22.717Z,16.90
2019-02-07T16:55:54.414Z,16.90
2019-02-07T16:58:26.584Z,16.80
2019-02-07T17:00:58.544Z,16.90
2019-02-07T17:03:30.201Z,16.90
2019-02-07T17:06:01.959Z,17.30
2019-02-07T17:08:33.518Z,17.60
2019-02-07T17:11:05.491Z,17.80
2019-02-07T17:13:36.997Z,17.90
2019-02-07T17:16:08.810Z,17.90
2019-02-07T17:18:40.365Z,17.90
2019-02-07T17:21:12.914Z,17.80
2019-02-07T17:23:44.755Z,17.50
2019-02-07T17:26:16.520Z,17.30
2019-02-07T17:28:48.626Z,17.20
2019-02-07T17:31:20.442Z,17.20
2019-02-07T17:33:51.941Z,17.10
2019-02-07T17:36:23.638Z,17.10
2019-02-07T17:38:55.332Z,17.40
2019-02-07T17:41:27.165Z,17.50
2019-02-07T17:43:59.386Z,17.90
2019-02-07T17:46:31.277Z,17.70
2019-02-07T17:49:03.375Z,17.60
2019-02-07T17:51:35.063Z,17.50
2019-02-07T17:54:06.756Z,17.30
2019-02-07T17:56:38.515Z,17.10
2019-02-07T17:59:10.095Z,17.00
2019-02-07T18:01:42.173Z,16.70
2019-02-07T18:04:13.929Z,16.90
2019-02-07T18:06:45.838Z,16.80
2019-02-07T18:09:17.461Z,16.80
2019-02-07T18:11:49.095Z,16.80
2019-02-07T18:14:21.263Z,16.90
2019-02-07T18:16:52.990Z,17.00
2019-02-07T18:19:24.586Z,17.00
2019-02-07T18:21:57.326Z,16.80
2019-02-07T18:24:29.351Z,16.90
2019-02-07T18:27:01.735Z,16.80
2019-02-07T18:29:33.770Z,17.00
2019-02-07T18:32:05.877Z,16.70
2019-02-07T18:34:37.514Z,16.80
2019-02-07T18:37:09.671Z,17.00
2019-02-07T18:39:41.314Z,16.80
2019-02-07T18:42:13.132Z,16.70
2019-02-07T18:44:44.919Z,16.60
2019-02-07T18:47:16.917Z,16.70
2019-02-07T18:49:48.552Z,16.80
2019-02-07T18:52:20.753Z,16.90
2019-02-07T18:54:52.408Z,17.60
2019-02-07T18:57:24.417Z,17.10
2019-02-07T18:59:56.705Z,17.30
2019-02-07T19:02:28.506Z,17.40
2019-02-07T19:05:00.414Z,17.60
2019-02-07T19:07:32.337Z,17.60
2019-02-07T19:10:04.582Z,17.60
2019-02-07T19:12:36.658Z,17.60
2019-02-07T19:15:13.476Z,17.70
2019-02-07T19:17:45.332Z,17.60
2019-02-07T19:20:19.009Z,17.90
2019-02-07T19:22:50.858Z,17.90
2019-02-07T19:25:22.602Z,18.00
2019-02-07T19:27:54.690Z,17.80
2019-02-07T19:30:31.196Z,17.70
2019-02-07T19:33:03.179Z,17.90
2019-02-07T19:35:34.759Z,18.10
2019-02-07T19:38:06.958Z,18.00
2019-02-07T19:40:39.036Z,18.20
2019-02-07T19:43:10.910Z,18.10
2019-02-07T19:45:42.658Z,18.00
2019-02-07T19:48:14.312Z,18.10
2019-02-07T19:50:46.189Z,17.90
2019-02-07T19:53:17.743Z,17.90
